createdAt,value
2022-08-22T00:02:33.017Z,100885.69
2022-08-22T00:02:44.828Z,100840.63
2022-08-22T00:02:48.856Z,100850.66
2022-08-22T00:03:04.983Z,100857.28
2022-08-22T00:03:15.001Z,100881.91
2022-08-22T00:05:15.058Z,100885.53
2022-08-22T00:07:56.801Z,100894.13
2022-08-22T00:10:29.614Z,100886.38
2022-08-22T00:13:38.162Z,100883.97
2022-08-22T00:16:17.329Z,100887.63
2022-08-22T00:19:16.900Z,100883.44
2022-08-22T00:22:02.988Z,100881.84
2022-08-22T00:24:46.932Z,100875.69
2022-08-22T00:27:27.208Z,100870.34
2022-08-22T00:30:04.818Z,100871.94
2022-08-22T00:32:53.543Z,100873.59
2022-08-22T00:35:24.568Z,100873.72
2022-08-22T00:38:13.729Z,100879.59
2022-08-22T00:40:40.748Z,100881.81
2022-08-22T00:43:17.263Z,100874.22
2022-08-22T00:46:13.315Z,100879.69
2022-08-22T00:48:46.571Z,100877.16
2022-08-22T00:51:36.445Z,100884.28
2022-08-22T00:54:22.341Z,100882.47
2022-08-22T00:57:20.528Z,100880.94
2022-08-22T00:59:51.945Z,100880.66
2022-08-22T01:02:52.862Z,100887.63
2022-08-22T01:05:59.338Z,100888.16
2022-08-22T01:08:29.456Z,100889.53
2022-08-22T01:11:05.907Z,100894.66
2022-08-22T01:13:54.816Z,100895.25
2022-08-22T01:16:56.050Z,100892.16
2022-08-22T01:19:47.122Z,100902.94
2022-08-22T01:22:20.218Z,100901.13
2022-08-22T01:25:22.454Z,100901.34
2022-08-22T01:28:30.416Z,100910.53
2022-08-22T01:31:29.817Z,100909.50
2022-08-22T01:34:12.894Z,100906.09
2022-08-22T01:37:04.981Z,100903.72
2022-08-22T01:39:56.801Z,100908.19
2022-08-22T01:42:29.783Z,100916.88
2022-08-22T01:45:02.510Z,100913.63
2022-08-22T01:47:38.511Z,100920.06
2022-08-22T01:50:19.166Z,100915.59
2022-08-22T01:52:51.069Z,100913.78
2022-08-22T01:55:37.067Z,100912.34
2022-08-22T01:58:16.282Z,100913.56
2022-08-22T02:01:22.309Z,100908.09
2022-08-22T02:03:58.490Z,100906.31
2022-08-22T02:06:41.719Z,100907.53
2022-08-22T02:09:27.714Z,100905.13
2022-08-22T02:11:57.599Z,100900.88
2022-08-22T02:14:40.073Z,100898.50
2022-08-22T02:17:13.393Z,100903.34
2022-08-22T02:19:55.225Z,100904.78
2022-08-22T02:22:35.665Z,100900.56
2022-08-22T02:25:26.384Z,100899.84
2022-08-22T02:28:07.184Z,100903.75
2022-08-22T02:31:16.814Z,100904.22
2022-08-22T02:33:58.774Z,100907.25
2022-08-22T02:36:49.585Z,100900.41
2022-08-22T02:39:24.012Z,100904.88
2022-08-22T02:41:54.055Z,100907.41
2022-08-22T02:44:26.160Z,100910.31
2022-08-22T02:47:05.571Z,100906.09
2022-08-22T02:49:43.662Z,100900.03
2022-08-22T02:52:24.230Z,100908.47
2022-08-22T02:55:00.014Z,100912.34
2022-08-22T02:57:39.722Z,100903.66
2022-08-22T03:00:32.560Z,100907.56
2022-08-22T03:03:25.832Z,100902.22
2022-08-22T03:06:01.659Z,100902.69
2022-08-22T03:08:36.170Z,100903.81
2022-08-22T03:11:08.978Z,100907.03
2022-08-22T03:13:52.272Z,100901.25
2022-08-22T03:17:02.217Z,100906.19
2022-08-22T03:20:04.710Z,100903.53
2022-08-22T03:22:33.836Z,100894.81
2022-08-22T03:25:07.402Z,100898.06
2022-08-22T03:28:13.868Z,100888.03
2022-08-22T03:30:56.068Z,100881.63
2022-08-22T03:33:29.993Z,100891.38
2022-08-22T03:36:11.874Z,100888.47
2022-08-22T03:38:47.951Z,100892.56
2022-08-22T03:42:00.161Z,100892.78
2022-08-22T03:44:46.381Z,100886.50
2022-08-22T03:47:31.697Z,100895.31
2022-08-22T03:50:18.119Z,100888.16
2022-08-22T03:53:03.822Z,100896.03
2022-08-22T03:56:08.771Z,100901.22
2022-08-22T03:58:53.657Z,100891.28
2022-08-22T04:01:23.836Z,100897.44
2022-08-22T04:04:00.114Z,100904.34
2022-08-22T04:06:56.322Z,100908.59
2022-08-22T04:09:48.338Z,100913.63
2022-08-22T04:12:21.650Z,100907.22
2022-08-22T04:15:10.673Z,100912.69
2022-08-22T04:18:01.315Z,100909.88
2022-08-22T04:20:50.376Z,100912.53
2022-08-22T04:23:41.183Z,100918.97
2022-08-22T04:26:41.575Z,100920.78
2022-08-22T04:29:33.183Z,100918.72
2022-08-22T04:32:14.012Z,100922.22
2022-08-22T04:34:50.707Z,100922.06
2022-08-22T04:37:33.562Z,100926.16
2022-08-22T04:40:17.392Z,100932.34
2022-08-22T04:42:54.478Z,100928.59
2022-08-22T04:46:00.515Z,100937.16
2022-08-22T04:48:45.614Z,100936.31
2022-08-22T04:51:25.151Z,100939.69
2022-08-22T04:53:55.232Z,100936.06
2022-08-22T04:56:24.651Z,100937.88
2022-08-22T04:58:58.587Z,100948.44
2022-08-22T05:01:38.559Z,100947.47
2022-08-22T05:04:13.062Z,100950.81
2022-08-22T05:06:44.226Z,100949.16
2022-08-22T05:09:16.333Z,100956.16
2022-08-22T05:11:46.328Z,100956.88
2022-08-22T05:14:38.442Z,100954.81
2022-08-22T05:17:09.328Z,100958.19
2022-08-22T05:19:40.043Z,100959.88
2022-08-22T05:22:14.342Z,100960.97
2022-08-22T05:24:46.162Z,100966.69
2022-08-22T05:27:18.251Z,100956.03
2022-08-22T05:29:47.972Z,100967.25
2022-08-22T05:32:26.258Z,100967.00
2022-08-22T05:34:57.940Z,100966.75
2022-08-22T05:37:34.165Z,100963.72
2022-08-22T05:40:01.627Z,100972.41
2022-08-22T05:42:32.015Z,100972.28
2022-08-22T05:45:01.825Z,100964.41
2022-08-22T05:47:36.919Z,100968.50
2022-08-22T05:50:07.087Z,100971.31
2022-08-22T05:53:14.470Z,100967.81
2022-08-22T05:55:47.619Z,100972.47
2022-08-22T05:58:39.546Z,100973.44
2022-08-22T06:01:16.159Z,100975.63
2022-08-22T06:04:17.876Z,100981.00
2022-08-22T06:07:03.344Z,100982.72
2022-08-22T06:09:35.241Z,100983.31
2022-08-22T06:12:21.727Z,100987.13
2022-08-22T06:15:01.900Z,100990.97
2022-08-22T06:17:35.628Z,100992.66
2022-08-22T06:20:06.637Z,100991.66
2022-08-22T06:22:38.453Z,101003.66
2022-08-22T06:25:13.618Z,100999.34
2022-08-22T06:27:41.204Z,101003.91
2022-08-22T06:30:09.401Z,100998.59
2022-08-22T06:32:59.761Z,100988.22
2022-08-22T06:35:55.649Z,100991.91
2022-08-22T06:38:28.619Z,100996.31
2022-08-22T06:40:57.917Z,100999.25
2022-08-22T06:43:25.415Z,101000.97
2022-08-22T06:45:53.196Z,101006.47
2022-08-22T06:48:22.235Z,101005.78
2022-08-22T06:50:53.270Z,100996.25
2022-08-22T06:53:48.232Z,101009.72
2022-08-22T06:56:39.548Z,101004.44
2022-08-22T06:59:10.891Z,101011.88
2022-08-22T07:02:09.131Z,101009.34
2022-08-22T07:04:36.697Z,101015.69
2022-08-22T07:07:04.021Z,101014.97
2022-08-22T07:09:35.169Z,101016.94
2022-08-22T07:12:10.924Z,101018.06
2022-08-22T07:14:44.143Z,101017.47
2022-08-22T07:17:22.009Z,101023.94
2022-08-22T07:20:15.322Z,101020.41
2022-08-22T07:22:54.178Z,101021.50
2022-08-22T07:25:23.018Z,101022.34
2022-08-22T07:27:53.002Z,101024.16
2022-08-22T07:30:27.920Z,101029.78
2022-08-22T07:33:18.966Z,101036.09
2022-08-22T07:35:53.113Z,101027.34
2022-08-22T07:38:43.794Z,101032.91
2022-08-22T07:41:20.325Z,101031.63
2022-08-22T07:44:09.958Z,101028.34
2022-08-22T07:47:07.582Z,101026.41
2022-08-22T07:49:56.228Z,101028.63
2022-08-22T07:52:24.017Z,101030.56
2022-08-22T07:55:17.395Z,101030.81
2022-08-22T07:57:47.709Z,101022.31
2022-08-22T08:00:18.949Z,101031.34
2022-08-22T08:02:52.218Z,101025.66
2022-08-22T08:05:22.203Z,101028.81
2022-08-22T08:07:52.548Z,101021.16
2022-08-22T08:10:24.207Z,101028.41
2022-08-22T08:13:01.905Z,101023.31
2022-08-22T08:15:32.200Z,101028.38
2022-08-22T08:18:05.389Z,101032.28
2022-08-22T08:20:35.542Z,101023.78
2022-08-22T08:23:05.100Z,101024.00
2022-08-22T08:25:48.819Z,101030.44
2022-08-22T08:28:34.222Z,101029.13
2022-08-22T08:31:08.229Z,101028.50
2022-08-22T08:33:38.585Z,101026.66
2022-08-22T08:36:23.222Z,101031.25
2022-08-22T08:39:03.264Z,101032.00
2022-08-22T08:41:45.150Z,101028.59
2022-08-22T08:44:45.871Z,101026.13
2022-08-22T08:47:35.150Z,101030.50
2022-08-22T08:50:29.629Z,101023.44
2022-08-22T08:53:24.312Z,101016.47
2022-08-22T08:56:01.897Z,101021.19
2022-08-22T08:58:57.051Z,101016.88
2022-08-22T09:01:59.222Z,101024.94
2022-08-22T09:04:53.628Z,101017.41
2022-08-22T09:08:16.912Z,101020.09
2022-08-22T09:11:09.550Z,101018.91
2022-08-22T09:13:58.869Z,101019.63
2022-08-22T09:16:38.324Z,101025.19
2022-08-22T09:19:13.406Z,101019.34
2022-08-22T09:22:25.564Z,101026.78
2022-08-22T09:25:25.020Z,101029.63
2022-08-22T09:28:13.711Z,101034.34
2022-08-22T09:34:01.408Z,101033.13
2022-08-22T09:36:59.881Z,101031.78
2022-08-22T09:39:35.829Z,101040.38
2022-08-22T09:40:16.741Z,101031.94
2022-08-22T09:42:08.777Z,101037.53
2022-08-22T09:44:51.528Z,101040.91
2022-08-22T09:47:42.253Z,101037.09
2022-08-22T09:50:18.531Z,101036.31
2022-08-22T09:53:09.847Z,101039.47
2022-08-22T09:56:15.507Z,101036.13
2022-08-22T09:58:54.672Z,101039.00
2022-08-22T10:01:33.025Z,101033.97
2022-08-22T10:04:42.275Z,101036.00
2022-08-22T10:07:33.070Z,101034.19
2022-08-22T10:10:21.398Z,101034.00
2022-08-22T10:12:54.533Z,101034.56
2022-08-22T10:15:31.628Z,101033.53
2022-08-22T10:18:10.928Z,101035.75
2022-08-22T10:20:50.876Z,101037.09
2022-08-22T10:23:46.033Z,101037.94
2022-08-22T10:26:38.535Z,101040.78
2022-08-22T10:29:35.633Z,101035.75
2022-08-22T10:32:27.053Z,101039.28
2022-08-22T10:34:57.795Z,101036.06
2022-08-22T10:37:55.677Z,101031.38
2022-08-22T10:40:26.639Z,101036.59
2022-08-22T10:42:59.946Z,101040.78
2022-08-22T10:45:40.326Z,101035.59
2022-08-22T10:48:10.651Z,101035.72
2022-08-22T10:50:43.000Z,101035.31
2022-08-22T10:53:34.952Z,101033.75
2022-08-22T10:56:27.389Z,101029.19
2022-08-22T10:59:19.387Z,101021.47
2022-08-22T11:02:06.792Z,101024.94
2022-08-22T11:04:44.193Z,101034.22
2022-08-22T11:07:16.838Z,101031.50
2022-08-22T11:09:54.256Z,101031.63
2022-08-22T11:12:34.666Z,101029.59
2022-08-22T11:15:28.353Z,101030.56
2022-08-22T11:18:14.708Z,101026.78
2022-08-22T11:21:02.476Z,101025.72
2022-08-22T11:23:44.769Z,101025.22
2022-08-22T11:26:33.684Z,101034.09
2022-08-22T11:29:23.101Z,101032.69
2022-08-22T11:32:06.701Z,101030.50
2022-08-22T11:35:13.638Z,101034.34
2022-08-22T11:38:01.269Z,101018.81
2022-08-22T11:40:36.489Z,101022.66
2022-08-22T11:43:32.361Z,101026.88
2022-08-22T11:46:19.748Z,101018.91
2022-08-22T11:49:21.187Z,101021.16
2022-08-22T11:51:57.294Z,101016.19
2022-08-22T11:54:42.083Z,101017.06
2022-08-22T11:57:34.276Z,101020.94
2022-08-22T12:00:32.641Z,101027.13
2022-08-22T12:03:18.264Z,101014.72
2022-08-22T12:05:53.776Z,101011.19
2022-08-22T12:08:30.862Z,101017.03
2022-08-22T12:10:59.984Z,101012.41
2022-08-22T12:14:05.165Z,101020.22
2022-08-22T12:16:56.426Z,101009.34
2022-08-22T12:19:34.192Z,101016.06
2022-08-22T12:22:35.571Z,101012.41
2022-08-22T12:25:30.776Z,101018.56
2022-08-22T12:28:20.503Z,101013.69
2022-08-22T12:31:25.505Z,101012.00
2022-08-22T12:34:13.879Z,101003.44
2022-08-22T12:37:02.910Z,101006.25
2022-08-22T12:39:36.215Z,100998.88
2022-08-22T12:42:14.328Z,101002.59
2022-08-22T12:45:23.539Z,100994.75
2022-08-22T12:48:15.468Z,100989.88
2022-08-22T12:50:57.249Z,100991.13
2022-08-22T12:53:45.129Z,100985.13
2022-08-22T12:56:37.668Z,100983.78
2022-08-22T12:59:12.226Z,100984.34
2022-08-22T13:01:45.535Z,100988.13
2022-08-22T13:04:32.963Z,100981.56
2022-08-22T13:07:38.379Z,100985.94
2022-08-22T13:10:14.290Z,100980.66
2022-08-22T13:12:51.073Z,100969.31
2022-08-22T13:15:21.118Z,100967.66
2022-08-22T13:17:53.952Z,100966.63
2022-08-22T13:20:26.723Z,100965.47
2022-08-22T13:22:54.606Z,100964.31
2022-08-22T13:25:29.048Z,100974.66
2022-08-22T13:28:00.408Z,100981.94
2022-08-22T13:30:27.736Z,100974.47
2022-08-22T13:33:01.631Z,100976.31
2022-08-22T13:35:51.894Z,100981.44
2022-08-22T13:38:26.556Z,100981.63
2022-08-22T13:40:58.235Z,100988.34
2022-08-22T13:43:26.267Z,100981.19
2022-08-22T13:46:02.083Z,100980.81
2022-08-22T13:48:54.189Z,100988.44
2022-08-22T13:51:53.204Z,100986.03
2022-08-22T13:54:39.460Z,100976.81
2022-08-22T13:57:11.089Z,100973.75
2022-08-22T13:59:59.488Z,100980.38
2022-08-22T14:02:57.549Z,100970.72
2022-08-22T14:05:34.518Z,100975.34
2022-08-22T14:08:25.800Z,100976.59
2022-08-22T14:11:06.622Z,100979.06
2022-08-22T14:13:51.139Z,100977.63
2022-08-22T14:16:21.163Z,100972.84
2022-08-22T14:18:51.331Z,100979.50
2022-08-22T14:21:22.405Z,100969.00
2022-08-22T14:23:55.623Z,100975.25
2022-08-22T14:26:37.356Z,100972.41
2022-08-22T14:29:16.283Z,100965.69
2022-08-22T14:31:56.618Z,100964.94
2022-08-22T14:34:24.897Z,100959.06
2022-08-22T14:36:55.093Z,100959.53
2022-08-22T14:39:28.893Z,100955.63
2022-08-22T14:42:09.894Z,100955.72
2022-08-22T14:45:07.060Z,100961.69
2022-08-22T14:47:55.563Z,100963.66
2022-08-22T14:50:46.208Z,100958.97
2022-08-22T14:53:24.909Z,100967.97
2022-08-22T14:56:07.082Z,100966.59
2022-08-22T14:58:37.117Z,100952.81
2022-08-22T15:01:12.887Z,100963.72
2022-08-22T15:03:43.211Z,100957.50
2022-08-22T15:06:29.595Z,100958.34
2022-08-22T15:08:57.296Z,100961.16
2022-08-22T15:11:28.226Z,100953.34
2022-08-22T15:14:05.383Z,100951.41
2022-08-22T15:16:37.647Z,100956.06
2022-08-22T15:19:33.134Z,100949.50
2022-08-22T15:22:27.478Z,100959.34
2022-08-22T15:24:57.784Z,100957.59
2022-08-22T15:27:25.877Z,100952.44
2022-08-22T15:29:58.761Z,100956.72
2022-08-22T15:32:28.917Z,100961.09
2022-08-22T15:35:08.148Z,100960.63
2022-08-22T15:38:00.434Z,100954.78
2022-08-22T15:40:32.181Z,100954.97
2022-08-22T15:43:13.352Z,100955.31
2022-08-22T15:45:42.587Z,100954.25
2022-08-22T15:48:33.837Z,100955.19
2022-08-22T15:51:15.942Z,100965.59
2022-08-22T15:54:24.747Z,100963.81
2022-08-22T15:56:52.966Z,100958.63
2022-08-22T15:59:52.594Z,100950.50
2022-08-22T16:02:33.267Z,100956.00
2022-08-22T16:05:11.538Z,100958.16
2022-08-22T16:07:57.126Z,100958.69
2022-08-22T16:10:24.262Z,100959.66
2022-08-22T16:13:13.200Z,100965.81
2022-08-22T16:15:54.169Z,100961.94
2022-08-22T16:18:44.817Z,100970.19
2022-08-22T16:21:20.902Z,100963.34
2022-08-22T16:23:51.185Z,100964.03
2022-08-22T16:26:30.511Z,100959.16
2022-08-22T16:28:58.854Z,100974.59
2022-08-22T16:31:29.049Z,100961.47
2022-08-22T16:34:18.198Z,100973.53
2022-08-22T16:37:03.936Z,100967.25
2022-08-22T16:39:36.220Z,100970.38
2022-08-22T16:42:15.733Z,100965.84
2022-08-22T16:44:46.103Z,100965.25
2022-08-22T16:47:23.095Z,100968.59
2022-08-22T16:49:50.155Z,100967.44
2022-08-22T16:52:23.407Z,100969.00
2022-08-22T16:54:59.121Z,100969.00
2022-08-22T16:58:05.652Z,100973.91
2022-08-22T17:00:59.422Z,100975.47
2022-08-22T17:03:32.623Z,100982.59
2022-08-22T17:06:32.260Z,100977.56
2022-08-22T17:09:41.529Z,100980.59
2022-08-22T17:12:39.788Z,100978.75
2022-08-22T17:15:13.271Z,100974.91
2022-08-22T17:18:11.876Z,100976.06
2022-08-22T17:21:05.207Z,100978.09
2022-08-22T17:23:53.817Z,100991.38
2022-08-22T17:26:30.057Z,100987.69
2022-08-22T17:29:34.867Z,100982.81
2022-08-22T17:32:33.331Z,100987.38
2022-08-22T17:35:03.700Z,100986.84
2022-08-22T17:37:33.884Z,100979.09
2022-08-22T17:40:37.536Z,100978.75
2022-08-22T17:43:27.401Z,100983.91
2022-08-22T17:46:13.404Z,100990.47
2022-08-22T17:48:49.561Z,100995.66
2022-08-22T17:51:28.940Z,101001.53
2022-08-22T17:54:06.577Z,101002.34
2022-08-22T17:57:00.286Z,101005.72
2022-08-22T17:59:59.722Z,101005.84
2022-08-22T18:02:42.916Z,101001.63
2022-08-22T18:05:19.236Z,101006.00
2022-08-22T18:08:06.148Z,101015.38
2022-08-22T18:10:38.630Z,101025.75
2022-08-22T18:13:29.124Z,101027.75
2022-08-22T18:16:00.060Z,101028.50
2022-08-22T18:18:37.369Z,101027.06
2022-08-22T18:21:27.887Z,101039.97
2022-08-22T18:24:09.198Z,101035.59
2022-08-22T18:26:48.509Z,101038.28
2022-08-22T18:29:23.847Z,101037.69
2022-08-22T18:32:13.222Z,101040.84
2022-08-22T18:35:18.283Z,101049.47
2022-08-22T18:40:56.743Z,101050.00
2022-08-22T18:43:45.444Z,101043.34
2022-08-22T18:46:52.282Z,101040.59
2022-08-22T18:49:22.659Z,101043.53
2022-08-22T18:52:25.702Z,101039.41
2022-08-22T18:55:08.296Z,101039.53
2022-08-22T18:58:05.718Z,101035.97
2022-08-22T19:00:58.013Z,101030.81
2022-08-22T19:03:41.183Z,101036.00
2022-08-22T19:06:28.467Z,101040.44
2022-08-22T19:09:24.263Z,101033.47
2022-08-22T19:12:13.027Z,101035.94
2022-08-22T19:14:48.945Z,101038.28
2022-08-22T19:17:41.223Z,101031.34
2022-08-22T19:20:54.371Z,101037.63
2022-08-22T19:23:34.235Z,101044.50
2022-08-22T19:26:25.806Z,101044.91
2022-08-22T19:29:08.752Z,101037.91
2022-08-22T19:31:42.581Z,101047.50
2022-08-22T19:37:42.963Z,101053.28
2022-08-22T19:41:05.268Z,101051.34
2022-08-22T19:43:53.730Z,101053.50
2022-08-22T19:46:42.145Z,101051.38
2022-08-22T19:49:27.110Z,101059.16
2022-08-22T19:56:44.205Z,101064.16
2022-08-22T19:59:38.262Z,101070.75
2022-08-22T20:02:36.009Z,101070.22
2022-08-22T20:05:12.553Z,101066.09
2022-08-22T20:07:56.097Z,101061.31
2022-08-22T20:10:47.940Z,101063.31
2022-08-22T20:17:13.000Z,101061.75
2022-08-22T20:22:49.440Z,101062.06
2022-08-22T20:25:51.531Z,101052.25
2022-08-22T20:28:39.549Z,101061.56
2022-08-22T20:31:18.552Z,101061.28
2022-08-22T20:33:51.574Z,101062.56
2022-08-22T20:36:27.919Z,101058.63
2022-08-22T20:39:14.555Z,101063.44
2022-08-22T20:41:46.682Z,101064.56
2022-08-22T20:44:38.275Z,101063.00
2022-08-22T20:47:13.380Z,101065.00
2022-08-22T20:49:55.786Z,101063.59
2022-08-22T20:53:12.517Z,101054.44
2022-08-22T20:56:08.261Z,101066.09
2022-08-22T20:58:40.230Z,101060.91
2022-08-22T21:01:11.396Z,101061.91
2022-08-22T21:03:47.929Z,101057.66
2022-08-22T21:06:20.188Z,101061.72
2022-08-22T21:09:12.115Z,101069.91
2022-08-22T21:11:50.280Z,101068.06
2022-08-22T21:14:23.604Z,101070.06
2022-08-22T21:16:51.857Z,101069.09
2022-08-22T21:19:28.184Z,101065.00
2022-08-22T21:22:14.365Z,101063.63
2022-08-22T21:24:41.889Z,101071.91
2022-08-22T21:27:14.414Z,101062.19
2022-08-22T21:29:46.482Z,101064.84
2022-08-22T21:32:13.619Z,101066.44
2022-08-22T21:34:47.094Z,101064.03
2022-08-22T21:37:29.311Z,101058.25
2022-08-22T21:40:14.851Z,101060.50
2022-08-22T21:42:43.028Z,101060.09
2022-08-22T21:45:25.630Z,101067.28
2022-08-22T21:47:53.055Z,101069.06
2022-08-22T21:50:23.478Z,101072.31
2022-08-22T21:52:53.807Z,101076.25
2022-08-22T21:55:32.813Z,101083.19
2022-08-22T21:58:04.995Z,101075.59
2022-08-22T22:00:39.840Z,101076.72
2022-08-22T22:03:24.313Z,101074.75
2022-08-22T22:05:54.838Z,101068.69
2022-08-22T22:08:22.192Z,101060.41
2022-08-22T22:10:50.158Z,101062.34
2022-08-22T22:13:19.290Z,101065.44
2022-08-22T22:15:49.332Z,101061.38
2022-08-22T22:18:20.139Z,101064.19
2022-08-22T22:20:48.489Z,101070.53
2022-08-22T22:23:15.718Z,101063.50
2022-08-22T22:25:43.543Z,101068.97
2022-08-22T22:28:31.738Z,101061.53
2022-08-22T22:30:59.183Z,101066.31
2022-08-22T22:33:36.046Z,101075.31
2022-08-22T22:36:25.900Z,101067.97
2022-08-22T22:38:53.955Z,101076.31
2022-08-22T22:41:25.355Z,101078.69
2022-08-22T22:43:54.170Z,101074.88
2022-08-22T22:46:22.651Z,101070.97
2022-08-22T22:48:50.193Z,101073.91
2022-08-22T22:51:17.364Z,101066.88
2022-08-22T22:53:45.104Z,101066.31
2022-08-22T22:56:16.073Z,101068.41
2022-08-22T22:58:43.868Z,101064.78
2022-08-22T23:01:18.712Z,101062.53
2022-08-22T23:03:46.418Z,101060.97
2022-08-22T23:06:19.337Z,101061.69
2022-08-22T23:08:47.747Z,101061.94
2022-08-22T23:11:18.833Z,101050.84
2022-08-22T23:13:48.427Z,101055.63
2022-08-22T23:16:18.600Z,101048.16
2022-08-22T23:18:46.522Z,101050.13
2022-08-22T23:21:19.159Z,101048.16
2022-08-22T23:23:47.579Z,101053.94
2022-08-22T23:26:15.703Z,101052.38
2022-08-22T23:28:43.605Z,101048.00
2022-08-22T23:31:20.180Z,101051.38
2022-08-22T23:33:47.825Z,101044.66
2022-08-22T23:36:18.837Z,101045.19
2022-08-22T23:38:50.191Z,101042.25
2022-08-22T23:41:19.002Z,101046.88
2022-08-22T23:43:50.473Z,101040.00
2022-08-22T23:46:19.707Z,101040.81
2022-08-22T23:48:47.302Z,101044.19
2022-08-22T23:51:17.087Z,101047.72
2022-08-22T23:53:49.465Z,101043.59
2022-08-22T23:56:25.377Z,101046.00
2022-08-22T23:58:53.459Z,101036.84
